Houlton, Houlton International Airport (KHUL)

NameHoulton International Airport
CityHoulton
CountryUnited States
ICAOKHUL
IATAHUL
Altitude149 m
CoordinatesGoogle Map
Live Air TrafficLiveATC.net
METARKHUL 150253Z AUTO 21008KT 9SM BKN016 OVC037 01/M01 A3012 RMK AO2 SNE10 SLP208 P0000 60000 T00111011 56023
2018-12-15 02:53:00 Wind: South-Southwest (210°) 4.12 m/s - Visibility: 14484.06 m - Temperature: 1 °C - Dew point: -1 °C - Humidity: 86.7% - Pressure: 1019.98 hPa

Sorry, no flights used the airport in this database.